Time;durP1;ratioP1;P1;durP2;ratioP2;P2;SDS_P1;SDS_P2;PMS_P1;PMS_P2;Temp;Humidity;BMP_temperature;BMP_pressure;BME280_temperature;BME280_humidity;BME280_pressure;Samples;Min_cycle;Max_cycle;Signal;HPM_P1;HPM_P2
2022/01/07 00:00:16;;;;;;;13.93;5.10;;;;;;;2.46;100.00;101319.72;5073643;28;20036;-72
2022/01/07 00:02:44;;;;;;;10.20;4.55;;;;;;;2.46;100.00;101306.66;5074028;28;20029;-76
2022/01/07 00:05:11;;;;;;;9.85;5.10;;;;;;;2.46;100.00;101298.81;5073471;28;20024;-75
2022/01/07 00:07:36;;;;;;;13.73;4.10;;;;;;;2.48;100.00;101303.16;5072915;28;20055;-76
2022/01/07 00:10:03;;;;;;;13.20;4.60;;;;;;;2.48;100.00;101303.16;5065866;28;20460;-76
2022/01/07 00:12:28;;;;;;;9.98;4.30;;;;;;;2.51;100.00;101298.81;5065584;28;20025;-71
2022/01/07 00:14:53;;;;;;;11.15;4.30;;;;;;;2.51;100.00;101288.34;5073421;28;20098;-71
2022/01/07 00:17:19;;;;;;;12.07;3.95;;;;;;;2.54;100.00;101326.69;5073107;28;20037;-72
2022/01/07 00:19:44;;;;;;;9.98;4.50;;;;;;;2.55;100.00;101299.66;5073525;28;20365;-72
2022/01/07 00:22:10;;;;;;;10.30;4.50;;;;;;;2.54;100.00;101301.41;5073420;28;20423;-71
2022/01/07 00:24:35;;;;;;;8.43;3.90;;;;;;;2.55;100.00;101294.44;5073114;28;20439;-76
2022/01/07 00:27:01;;;;;;;13.70;4.43;;;;;;;2.57;100.00;101296.16;5072850;28;20037;-71
2022/01/07 00:29:26;;;;;;;12.23;4.20;;;;;;;2.57;100.00;101284.81;5073260;28;20025;-71
2022/01/07 00:31:51;;;;;;;11.93;4.30;;;;;;;2.52;100.00;101268.28;5073058;28;20085;-71
2022/01/07 00:34:17;;;;;;;15.38;4.45;;;;;;;2.51;100.00;101274.41;5072951;28;20028;-71
2022/01/07 00:36:42;;;;;;;12.23;4.03;;;;;;;2.51;100.00;101262.22;5072816;28;20037;-71
2022/01/07 00:39:07;;;;;;;10.55;4.30;;;;;;;2.53;100.00;101268.31;5072323;28;20033;-76
2022/01/07 00:41:33;;;;;;;11.02;4.30;;;;;;;2.56;100.00;101254.34;5072779;28;20033;-72
2022/01/07 00:43:58;;;;;;;13.65;4.07;;;;;;;2.58;100.00;101252.59;5072720;28;20036;-76
2022/01/07 00:46:23;;;;;;;7.22;3.58;;;;;;;2.59;100.00;101260.41;5072715;28;20025;-73
2022/01/07 00:48:49;;;;;;;12.95;4.03;;;;;;;2.61;100.00;101242.97;5073072;28;20028;-75
2022/01/07 00:51:14;;;;;;;10.50;3.85;;;;;;;2.66;100.00;101250.81;5072443;28;20107;-71
2022/01/07 00:53:41;;;;;;;11.45;3.83;;;;;;;2.69;100.00;101253.41;5072168;28;20040;-75
2022/01/07 00:56:06;;;;;;;9.60;4.35;;;;;;;2.74;100.00;101256.00;5072680;28;20047;-76
2022/01/07 00:58:32;;;;;;;10.52;4.03;;;;;;;2.74;100.00;101245.53;5072257;28;20032;-71
2022/01/07 01:00:57;;;;;;;9.60;4.22;;;;;;;2.75;100.00;101229.84;5070556;28;20033;-71
2022/01/07 01:03:23;;;;;;;13.45;4.80;;;;;;;2.75;100.00;101232.44;5072082;28;20054;-71
2022/01/07 01:05:49;;;;;;;12.63;4.88;;;;;;;2.75;100.00;101237.69;5071014;28;20039;-71
2022/01/07 01:08:14;;;;;;;10.75;4.32;;;;;;;2.77;100.00;101253.34;5072552;28;20116;-72
2022/01/07 01:10:40;;;;;;;14.35;4.60;;;;;;;2.75;100.00;101236.78;5071707;28;20450;-72
2022/01/07 01:13:05;;;;;;;10.18;4.68;;;;;;;2.72;100.00;101215.91;5072188;28;20036;-75
2022/01/07 01:15:30;;;;;;;9.70;4.93;;;;;;;2.72;100.00;101224.59;5072112;28;20044;-76
2022/01/07 01:17:57;;;;;;;16.13;5.07;;;;;;;2.74;100.00;101208.94;5072663;28;20388;-74
2022/01/07 01:20:23;;;;;;;16.08;5.13;;;;;;;2.73;100.00;101207.19;5071813;28;20060;-72
2022/01/07 01:22:49;;;;;;;13.18;5.43;;;;;;;2.76;100.00;101202.81;5072496;28;20055;-75
2022/01/07 01:25:14;;;;;;;16.40;5.20;;;;;;;2.79;100.00;101233.31;5072046;28;20028;-70
2022/01/07 01:27:40;;;;;;;13.23;5.90;;;;;;;2.82;100.00;101214.97;5072459;28;20078;-75
2022/01/07 01:30:09;;;;;;;12.95;5.28;;;;;;;2.82;100.00;101207.13;5071879;28;20024;-74
2022/01/07 01:32:36;;;;;;;13.35;5.60;;;;;;;2.82;100.00;101191.41;5071744;28;20029;-73
2022/01/07 01:35:03;;;;;;;15.38;5.78;;;;;;;2.84;100.00;101189.66;5072036;28;20093;-70
2022/01/07 01:37:30;;;;;;;16.73;5.55;;;;;;;2.86;100.00;101189.66;5072195;28;20028;-70
2022/01/07 01:39:56;;;;;;;15.18;6.32;;;;;;;2.88;100.00;101188.75;5071414;28;20356;-71
2022/01/07 01:42:21;;;;;;;15.05;6.18;;;;;;;2.92;100.00;101194.84;5072399;28;20029;-70
2022/01/07 01:44:47;;;;;;;13.10;6.35;;;;;;;2.91;100.00;101190.50;5071769;28;20028;-73
2022/01/07 01:47:12;;;;;;;17.13;5.85;;;;;;;2.93;100.00;101179.13;5071958;28;20029;-73
2022/01/07 01:49:37;;;;;;;13.63;5.82;;;;;;;2.97;100.00;101177.38;5072261;28;20035;-74
2022/01/07 01:52:03;;;;;;;10.98;5.50;;;;;;;2.95;100.00;101169.53;5072259;28;20071;-73
2022/01/07 01:54:29;;;;;;;13.40;5.97;;;;;;;3.00;100.00;101166.88;5072063;28;20036;-71
2022/01/07 01:56:54;;;;;;;12.60;6.18;;;;;;;3.02;100.00;101172.06;5071368;28;20028;-70
2022/01/07 01:59:28;;;;;;;15.05;6.60;;;;;;;3.07;100.00;101172.91;5071606;28;20044;-70
2022/01/07 02:01:53;;;;;;;11.85;6.72;;;;;;;3.07;100.00;101176.41;5071877;28;20037;-72
2022/01/07 02:04:19;;;;;;;15.30;6.63;;;;;;;3.11;100.00;101166.78;5071529;28;20044;-69
2022/01/07 02:06:45;;;;;;;14.65;6.72;;;;;;;3.13;100.00;101158.91;5072222;28;20043;-73
2022/01/07 02:09:10;;;;;;;15.77;7.30;;;;;;;3.15;100.00;101155.41;5070566;28;20373;-71
2022/01/07 02:11:36;;;;;;;12.45;6.82;;;;;;;3.15;100.00;101154.56;5071385;28;20029;-74
2022/01/07 02:14:02;;;;;;;13.75;6.05;;;;;;;3.17;100.00;101152.78;5061612;28;20029;-70
2022/01/07 02:16:27;;;;;;;12.25;5.32;;;;;;;3.18;100.00;101134.44;5066534;28;20025;-75
2022/01/07 02:18:53;;;;;;;10.90;5.80;;;;;;;3.21;100.00;101137.03;5058770;28;20476;-71
2022/01/07 02:21:19;;;;;;;12.00;6.25;;;;;;;3.21;100.00;101138.75;5075857;28;20056;-70
2022/01/07 02:23:44;;;;;;;10.60;6.05;;;;;;;3.23;100.00;101131.78;5075883;28;20020;-70
2022/01/07 02:26:12;;;;;;;13.00;5.85;;;;;;;3.21;100.00;101131.81;5074913;28;20033;-73
2022/01/07 02:28:38;;;;;;;12.30;6.43;;;;;;;3.19;100.00;101128.31;5075090;28;20028;-70
2022/01/07 02:31:04;;;;;;;12.32;6.60;;;;;;;3.17;100.00;101132.72;5075419;28;20029;-70
2022/01/07 02:33:29;;;;;;;11.60;6.03;;;;;;;3.18;100.00;101137.06;5075248;28;20046;-74
2022/01/07 02:35:54;;;;;;;14.38;6.43;;;;;;;3.14;100.00;101130.13;5075123;28;20431;-72
2022/01/07 02:38:20;;;;;;;11.40;6.22;;;;;;;3.13;100.00;101130.13;5074843;28;20086;-70
2022/01/07 02:40:45;;;;;;;12.57;6.40;;;;;;;3.12;100.00;101129.28;5075063;28;20052;-72
2022/01/07 02:43:11;;;;;;;12.75;6.20;;;;;;;3.10;100.00;101118.81;5074379;28;20036;-71
2022/01/07 02:45:36;;;;;;;11.38;5.82;;;;;;;3.13;100.00;101111.81;5075403;28;20103;-74
2022/01/07 02:48:03;;;;;;;14.27;7.18;;;;;;;3.13;100.00;101127.53;5074780;28;20051;-73
2022/01/07 02:50:37;;;;;;;10.18;6.03;;;;;;;3.11;100.00;101119.69;5075045;28;20032;-72
2022/01/07 02:53:08;;;;;;;13.10;7.00;;;;;;;3.16;100.00;101110.03;5075221;28;20056;-70
2022/01/07 02:55:34;;;;;;;12.07;6.73;;;;;;;3.20;100.00;101103.88;5074554;28;20086;-70
2022/01/07 02:58:00;;;;;;;15.02;7.50;;;;;;;3.24;100.00;101108.19;5074295;28;20016;-74
2022/01/07 03:00:26;;;;;;;14.50;7.70;;;;;;;3.23;100.00;101093.38;5075068;28;20040;-73
2022/01/07 03:02:54;;;;;;;15.32;8.32;;;;;;;3.23;100.00;101096.00;5074385;28;20025;-74
2022/01/07 03:05:20;;;;;;;18.45;9.02;;;;;;;3.26;100.00;101092.47;5072192;28;20025;-73
2022/01/07 03:07:47;;;;;;;18.70;9.40;;;;;;;3.30;100.00;101101.16;5064419;28;20039;-70
2022/01/07 03:10:13;;;;;;;15.27;10.02;;;;;;;3.35;100.00;101100.25;5074881;28;20070;-70
2022/01/07 03:12:40;;;;;;;15.40;8.98;;;;;;;3.40;100.00;101094.94;5074343;28;20025;-70
2022/01/07 03:15:08;;;;;;;13.00;8.07;;;;;;;3.43;100.00;101085.31;5074497;28;20384;-72
2022/01/07 03:17:33;;;;;;;13.43;8.65;;;;;;;3.46;100.00;101086.19;5074534;28;20029;-70
2022/01/07 03:19:58;;;;;;;17.40;9.15;;;;;;;3.45;100.00;101087.91;5074112;28;20039;-70
2022/01/07 03:22:24;;;;;;;16.42;8.90;;;;;;;3.44;100.00;101084.44;5074335;28;20036;-73
2022/01/07 03:24:49;;;;;;;13.93;8.68;;;;;;;3.43;100.00;101069.59;5074298;28;20405;-70
2022/01/07 03:27:15;;;;;;;15.35;9.15;;;;;;;3.41;100.00;101079.22;5074395;28;20037;-70
2022/01/07 03:29:40;;;;;;;15.52;8.88;;;;;;;3.40;100.00;101074.91;5073725;28;20033;-70
2022/01/07 03:32:06;;;;;;;12.55;8.23;;;;;;;3.43;100.00;101072.22;5074537;28;20036;-72
2022/01/07 03:34:31;;;;;;;17.23;9.23;;;;;;;3.46;100.00;101065.22;5074207;28;20036;-71
2022/01/07 03:36:56;;;;;;;18.17;9.85;;;;;;;3.48;100.00;101066.06;5073924;28;20029;-72
2022/01/07 03:39:22;;;;;;;17.45;10.02;;;;;;;3.46;100.00;101053.00;5074145;28;20032;-73
2022/01/07 03:41:47;;;;;;;19.42;10.02;;;;;;;3.45;100.00;101046.03;5073536;28;20035;-74
2022/01/07 03:44:12;;;;;;;18.25;9.57;;;;;;;3.46;100.00;101036.44;5073759;28;20063;-73
2022/01/07 03:46:38;;;;;;;14.63;9.40;;;;;;;3.47;100.00;101049.50;5074187;28;20032;-72
2022/01/07 03:49:03;;;;;;;15.57;9.07;;;;;;;3.50;100.00;101038.13;5074448;28;20120;-73
2022/01/07 03:51:29;;;;;;;14.25;9.43;;;;;;;3.49;100.00;101032.03;5073567;28;20472;-72
2022/01/07 03:53:54;;;;;;;12.32;8.80;;;;;;;3.52;100.00;101026.75;5073887;28;20119;-70
2022/01/07 03:56:20;;;;;;;15.70;9.48;;;;;;;3.53;100.00;101019.75;5074020;28;20033;-70
2022/01/07 03:58:46;;;;;;;16.08;10.30;;;;;;;3.54;100.00;101017.13;5073199;28;20024;-70
2022/01/07 04:01:12;;;;;;;15.85;9.15;;;;;;;3.54;100.00;101014.50;5073660;28;20082;-70
2022/01/07 04:03:37;;;;;;;15.48;9.43;;;;;;;3.56;100.00;101007.47;5073660;28;20481;-73
2022/01/07 04:06:03;;;;;;;15.30;9.50;;;;;;;3.55;100.00;101005.75;5073604;28;20032;-74
2022/01/07 04:08:28;;;;;;;14.82;9.60;;;;;;;3.55;100.00;101015.38;5073701;28;20043;-74
2022/01/07 04:10:53;;;;;;;16.27;9.77;;;;;;;3.57;100.00;101011.00;5073192;28;20103;-70
2022/01/07 04:13:18;;;;;;;15.07;9.48;;;;;;;3.58;100.00;101013.59;5072949;28;20491;-70
2022/01/07 04:15:44;;;;;;;15.75;9.43;;;;;;;3.63;100.00;101018.75;5073233;28;20024;-70
2022/01/07 04:18:09;;;;;;;15.93;9.32;;;;;;;3.66;100.00;101015.22;5073521;28;20040;-74
2022/01/07 04:20:36;;;;;;;16.05;10.27;;;;;;;3.65;100.00;101010.88;5073182;28;20500;-71
2022/01/07 04:23:02;;;;;;;19.08;10.05;;;;;;;3.68;100.00;101014.31;5072848;28;20028;-70
2022/01/07 04:25:28;;;;;;;13.20;9.40;;;;;;;3.68;100.00;101005.59;5073267;28;20113;-76
2022/01/07 04:27:58;;;;;;;15.70;10.00;;;;;;;3.68;100.00;101003.81;5073301;28;20020;-69
2022/01/07 04:30:26;;;;;;;13.35;9.32;;;;;;;3.64;100.00;101011.75;5073112;28;20052;-74
2022/01/07 04:32:54;;;;;;;16.17;9.07;;;;;;;3.63;100.00;101007.41;5072829;28;20034;-75
2022/01/07 04:35:20;;;;;;;18.30;9.20;;;;;;;3.63;100.00;101010.88;5072750;28;20051;-70
2022/01/07 04:37:46;;;;;;;16.63;8.27;;;;;;;3.62;100.00;101019.66;5072451;28;20075;-71
2022/01/07 04:40:13;;;;;;;15.50;8.32;;;;;;;3.66;100.00;101009.97;5072953;28;20052;-72
2022/01/07 04:42:38;;;;;;;13.15;8.23;;;;;;;3.70;100.00;101003.84;5072553;28;20028;-72
2022/01/07 04:45:06;;;;;;;13.90;8.35;;;;;;;3.74;100.00;101001.13;5071981;28;20051;-73
2022/01/07 04:47:34;;;;;;;13.52;8.82;;;;;;;3.82;100.00;101000.16;5072717;28;20489;-70
2022/01/07 04:49:59;;;;;;;15.02;9.73;;;;;;;3.87;100.00;100998.34;5072888;28;20047;-70
2022/01/07 04:52:24;;;;;;;15.48;9.35;;;;;;;3.93;100.00;100993.03;5072921;28;20460;-70
2022/01/07 04:54:50;;;;;;;16.42;9.73;;;;;;;3.93;100.00;101001.72;5072346;28;20029;-76
2022/01/07 04:57:15;;;;;;;18.75;10.27;;;;;;;4.00;100.00;100999.03;5072701;28;20040;-76
2022/01/07 04:59:41;;;;;;;21.77;10.63;;;;;;;4.01;100.00;100985.91;5072730;28;20054;-76
2022/01/07 05:02:06;;;;;;;16.85;10.85;;;;;;;4.03;100.00;101001.59;5072648;28;20029;-77
2022/01/07 05:04:32;;;;;;;15.15;10.05;;;;;;;4.08;100.00;100992.78;5071791;28;20379;-80
2022/01/07 05:06:57;;;;;;;18.05;9.90;;;;;;;4.06;100.00;101004.19;5072024;28;20028;-76
2022/01/07 05:09:22;;;;;;;19.60;9.95;;;;;;;4.08;100.00;100997.19;5071027;28;20033;-76
2022/01/07 05:11:50;;;;;;;15.80;9.95;;;;;;;4.09;100.00;101005.00;5072598;28;20059;-75
2022/01/07 05:14:17;;;;;;;20.10;10.65;;;;;;;4.12;100.00;100993.59;5071806;28;20078;-76
2022/01/07 05:16:43;;;;;;;18.70;10.40;;;;;;;4.15;100.00;101000.56;5071933;28;20032;-69
2022/01/07 05:19:09;;;;;;;16.50;8.88;;;;;;;4.16;100.00;101005.78;5072761;28;20029;-76
2022/01/07 05:21:35;;;;;;;21.08;9.82;;;;;;;4.16;100.00;100987.41;5072213;28;20032;-76
2022/01/07 05:24:01;;;;;;;18.33;10.25;;;;;;;4.20;100.00;100996.97;5071816;28;20108;-75
2022/01/07 05:26:26;;;;;;;14.60;9.40;;;;;;;4.25;100.00;100995.13;5071886;28;20167;-75
2022/01/07 05:28:51;;;;;;;18.35;9.98;;;;;;;4.23;100.00;100983.81;5072357;28;20078;-76
2022/01/07 05:31:18;;;;;;;14.50;9.55;;;;;;;4.22;100.00;101004.78;5072205;28;20025;-75
2022/01/07 05:33:43;;;;;;;14.95;9.10;;;;;;;4.20;100.00;101004.81;5071777;28;20044;-74
2022/01/07 05:36:08;;;;;;;16.33;9.50;;;;;;;4.23;100.00;100996.03;5071504;28;20585;-74
2022/01/07 05:38:34;;;;;;;20.05;9.85;;;;;;;4.23;100.00;100996.94;5074325;28;20472;-75
2022/01/07 05:40:59;;;;;;;18.77;9.30;;;;;;;4.21;100.00;101001.31;5092491;28;20150;-70
2022/01/07 05:43:26;;;;;;;17.75;8.68;;;;;;;4.20;100.00;100991.72;5092035;28;20468;-71
2022/01/07 05:45:51;;;;;;;13.90;9.30;;;;;;;4.18;100.00;101000.50;5071719;28;20534;-71
2022/01/07 05:48:17;;;;;;;18.52;9.65;;;;;;;4.20;100.00;100994.34;5072211;28;20024;-70
2022/01/07 05:50:42;;;;;;;14.73;9.32;;;;;;;4.19;100.00;100989.97;5075828;28;20035;-72
2022/01/07 05:53:07;;;;;;;19.23;9.80;;;;;;;4.18;100.00;100995.25;5076398;28;20060;-74
2022/01/07 05:55:33;;;;;;;19.67;10.23;;;;;;;4.17;100.00;100993.50;5075586;28;20048;-75
2022/01/07 05:57:58;;;;;;;18.92;10.00;;;;;;;4.15;100.00;101004.03;5076291;28;20052;-75
2022/01/07 06:00:24;;;;;;;17.20;10.35;;;;;;;4.18;100.00;101003.13;5072263;28;20070;-71
2022/01/07 06:02:49;;;;;;;20.02;10.32;;;;;;;4.22;100.00;101018.78;5058007;28;20040;-71
2022/01/07 06:05:14;;;;;;;18.77;9.95;;;;;;;4.26;100.00;101012.59;5060596;28;20016;-76
2022/01/07 06:07:40;;;;;;;16.88;9.88;;;;;;;4.32;100.00;101011.63;5075677;28;20063;-72
2022/01/07 06:10:06;;;;;;;19.52;9.85;;;;;;;4.33;100.00;101015.97;5076150;28;20495;-74
2022/01/07 06:12:31;;;;;;;21.08;10.68;;;;;;;4.32;100.00;101005.53;5075649;28;20066;-70
2022/01/07 06:14:57;;;;;;;18.25;10.90;;;;;;;4.35;100.00;101014.22;5075683;28;20052;-70
2022/01/07 06:17:23;;;;;;;17.02;10.60;;;;;;;4.38;100.00;101011.53;5074813;28;20160;-78
2022/01/07 06:19:48;;;;;;;23.88;11.27;;;;;;;4.37;100.00;101008.94;5075330;28;20127;-73
2022/01/07 06:22:14;;;;;;;16.20;11.02;;;;;;;4.38;100.00;101011.53;5074125;28;20036;-72
2022/01/07 06:24:39;;;;;;;21.48;10.93;;;;;;;4.35;100.00;101019.44;5075519;28;20107;-77
2022/01/07 06:27:05;;;;;;;20.35;10.70;;;;;;;4.41;100.00;101001.00;5075078;28;20413;-77
2022/01/07 06:29:30;;;;;;;20.67;10.10;;;;;;;4.43;100.00;100998.34;5075703;28;20488;-74
2022/01/07 06:31:55;;;;;;;17.10;10.45;;;;;;;4.41;100.00;100994.88;5075446;28;20024;-74
2022/01/07 06:34:21;;;;;;;20.17;10.15;;;;;;;4.40;100.00;100993.16;5075093;28;20040;-73
2022/01/07 06:36:47;;;;;;;17.55;10.68;;;;;;;4.39;100.00;100978.31;5075148;28;20045;-73
2022/01/07 06:39:13;;;;;;;23.63;11.07;;;;;;;4.38;100.00;101002.81;5074963;28;20056;-72
2022/01/07 06:41:38;;;;;;;21.15;10.98;;;;;;;4.34;100.00;101015.09;5075193;28;20497;-72
2022/01/07 06:44:04;;;;;;;24.40;11.25;;;;;;;4.32;100.00;101008.16;5075463;28;20115;-73
2022/01/07 06:46:29;;;;;;;20.10;10.98;;;;;;;4.33;100.00;101012.50;5075515;28;20024;-73
2022/01/07 06:48:55;;;;;;;29.15;11.75;;;;;;;4.28;100.00;101016.97;5074273;28;20016;-76
2022/01/07 06:51:20;;;;;;;26.88;10.88;;;;;;;4.28;100.00;101011.72;5075213;28;20392;-76
2022/01/07 06:53:45;;;;;;;23.77;11.60;;;;;;;4.26;100.00;101012.59;5075056;28;20086;-77
2022/01/07 06:56:11;;;;;;;19.13;10.25;;;;;;;4.24;100.00;101019.59;5082940;28;20143;-74
2022/01/07 06:58:36;;;;;;;19.77;9.18;;;;;;;4.25;100.00;101015.25;5074828;28;20487;-77
2022/01/07 07:01:03;;;;;;;19.15;9.80;;;;;;;4.18;100.00;101008.34;5074198;28;20021;-74
2022/01/07 07:03:28;;;;;;;15.95;9.13;;;;;;;4.15;100.00;101011.91;5075159;28;20032;-74
2022/01/07 07:05:53;;;;;;;19.80;9.00;;;;;;;4.13;100.00;101004.94;5074514;28;20115;-73
2022/01/07 07:08:18;;;;;;;21.48;8.68;;;;;;;4.12;100.00;100995.34;5073959;28;20383;-75
2022/01/07 07:10:44;;;;;;;17.23;8.30;;;;;;;4.09;100.00;101004.13;5072584;28;20483;-75
2022/01/07 07:13:09;;;;;;;19.58;8.65;;;;;;;4.04;100.00;100998.97;5074772;28;20025;-76
2022/01/07 07:15:34;;;;;;;15.80;7.93;;;;;;;4.00;100.00;101023.47;5074737;28;20061;-72
2022/01/07 07:18:00;;;;;;;17.88;8.13;;;;;;;3.93;100.00;100993.88;5074400;28;20483;-75
2022/01/07 07:20:25;;;;;;;17.42;7.95;;;;;;;3.92;100.00;100993.91;5073752;28;20039;-74
2022/01/07 07:22:50;;;;;;;14.32;7.63;;;;;;;3.92;100.00;101001.75;5074081;28;20113;-76
2022/01/07 07:25:16;;;;;;;15.65;7.47;;;;;;;3.90;100.00;100993.94;5067752;28;20044;-78
2022/01/07 07:27:41;;;;;;;16.92;8.02;;;;;;;3.90;100.00;101001.78;5057092;28;20860;-72
2022/01/07 07:30:09;;;;;;;16.50;9.15;;;;;;;3.91;100.00;100994.78;5067705;28;20029;-75
2022/01/07 07:32:36;;;;;;;21.70;8.63;;;;;;;3.92;100.00;100992.13;5063525;28;20081;-73
2022/01/07 07:37:48;;;;;;;15.80;7.88;;;;;;;3.85;100.00;100985.28;5066264;28;20048;-74
2022/01/07 07:40:14;;;;;;;20.23;7.47;;;;;;;3.80;100.00;100979.25;5073750;28;20468;-73
2022/01/07 07:42:39;;;;;;;24.40;8.57;;;;;;;3.84;100.00;100990.53;5074286;28;20073;-73
2022/01/07 07:45:05;;;;;;;15.07;6.70;;;;;;;3.84;100.00;100982.69;5071196;28;20365;-76
2022/01/07 07:47:33;;;;;;;15.63;5.97;;;;;;;3.87;100.00;100991.34;5069476;28;20036;-72
2022/01/07 07:49:58;;;;;;;15.70;5.78;;;;;;;3.91;100.00;100997.41;5062468;28;20788;-74
2022/01/07 07:52:24;;;;;;;16.52;5.95;;;;;;;3.84;100.00;100999.25;5072887;28;20163;-69
2022/01/07 07:54:49;;;;;;;14.15;5.82;;;;;;;3.81;100.00;100999.31;5071902;28;20036;-76
2022/01/07 07:57:14;;;;;;;14.65;6.65;;;;;;;3.80;100.00;100999.31;5072705;28;20399;-75
2022/01/07 07:59:39;;;;;;;17.10;6.10;;;;;;;3.80;100.00;101002.81;5074123;28;20122;-75
2022/01/07 08:02:05;;;;;;;17.45;6.13;;;;;;;3.80;100.00;101000.19;5074117;28;20040;-69
2022/01/07 08:04:31;;;;;;;17.40;6.60;;;;;;;3.77;100.00;101000.22;5073865;28;20034;-74
2022/01/07 08:06:56;;;;;;;19.05;6.82;;;;;;;3.79;100.00;101010.69;5074232;28;20376;-75
2022/01/07 08:09:23;;;;;;;36.15;9.05;;;;;;;3.79;100.00;101024.66;5074327;28;20029;-71
2022/01/07 08:11:50;;;;;;;13.32;6.57;;;;;;;3.75;100.00;101020.34;5069711;28;20036;-74
2022/01/07 08:17:02;;;;;;;24.25;7.10;;;;;;;3.82;100.00;101013.25;5073951;28;20519;-75
2022/01/07 08:19:27;;;;;;;21.48;6.60;;;;;;;3.80;100.00;101013.28;5073805;28;20119;-72
2022/01/07 08:21:53;;;;;;;21.13;5.85;;;;;;;3.84;100.00;101012.34;5073104;28;20036;-73
2022/01/07 08:24:18;;;;;;;13.57;6.18;;;;;;;3.85;100.00;101016.72;5073748;28;20460;-69
2022/01/07 08:26:44;;;;;;;16.77;6.13;;;;;;;3.88;100.00;101014.03;5070053;28;20059;-76
2022/01/07 08:29:11;;;;;;;16.10;5.80;;;;;;;3.86;100.00;101018.44;5068495;28;20032;-69
2022/01/07 08:36:49;;;;;;;19.42;5.47;;;;;;;4.01;100.00;101006.00;5072711;28;20051;-75
2022/01/07 08:39:14;;;;;;;12.75;4.68;;;;;;;4.07;100.00;101004.16;5073447;28;20020;-69
2022/01/07 08:41:40;;;;;;;13.23;5.10;;;;;;;4.11;100.00;101010.22;5073142;28;20028;-75
2022/01/07 08:44:06;;;;;;;16.05;4.90;;;;;;;4.17;100.00;101002.25;5071589;28;20155;-74
2022/01/07 08:46:32;;;;;;;20.50;6.40;;;;;;;4.17;100.00;101004.88;5070888;28;20112;-74
2022/01/07 08:48:59;;;;;;;17.33;5.95;;;;;;;4.18;100.00;100998.75;5068984;28;20147;-77
2022/01/07 08:51:26;;;;;;;14.70;6.05;;;;;;;4.20;100.00;100994.34;5072875;28;20068;-70
2022/01/07 08:53:52;;;;;;;20.23;6.95;;;;;;;4.29;100.00;101003.81;5073176;28;20170;-77
2022/01/07 08:56:18;;;;;;;41.40;13.73;;;;;;;4.45;100.00;101007.06;5073088;28;20029;-77
2022/01/07 08:58:44;;;;;;;13.77;5.28;;;;;;;4.63;100.00;100991.88;5073508;28;20039;-77
2022/01/07 09:01:09;;;;;;;11.00;4.50;;;;;;;4.78;100.00;101001.25;5066267;28;20020;-75
2022/01/07 09:03:34;;;;;;;13.20;4.63;;;;;;;4.80;100.00;100994.22;5057889;28;20151;-70
2022/01/07 09:06:00;;;;;;;16.80;5.25;;;;;;;4.79;100.00;101005.59;5053338;28;20025;-77
2022/01/07 09:08:25;;;;;;;13.38;4.88;;;;;;;4.74;100.00;100995.19;5052910;28;20031;-71
2022/01/07 09:10:51;;;;;;;17.40;5.55;;;;;;;4.67;100.00;100991.81;5078198;28;20452;-75
2022/01/07 09:13:16;;;;;;;20.15;7.05;;;;;;;4.72;100.00;100979.47;5074165;28;20464;-73
2022/01/07 09:15:42;;;;;;;20.13;6.25;;;;;;;4.80;100.00;100986.34;5072727;28;20028;-69
2022/01/07 09:18:10;;;;;;;15.77;5.95;;;;;;;4.92;100.00;100983.47;5072759;28;20063;-74
2022/01/07 09:20:40;;;;;;;10.43;5.43;;;;;;;5.01;100.00;100991.19;5072958;28;20078;-70
2022/01/07 09:23:06;;;;;;;17.58;5.40;;;;;;;5.13;100.00;100990.09;5072387;28;20032;-68
2022/01/07 09:25:32;;;;;;;14.18;4.85;;;;;;;5.24;100.00;100993.38;5071601;28;20020;-76
2022/01/07 09:27:57;;;;;;;11.65;4.18;;;;;;;5.41;100.00;100986.91;5072407;28;20033;-75
2022/01/07 09:30:23;;;;;;;14.80;4.38;;;;;;;5.40;99.83;100996.53;5073533;28;20024;-71
2022/01/07 09:32:48;;;;;;;14.50;4.25;;;;;;;5.37;100.00;100987.84;5072419;28;20032;-73
2022/01/07 09:35:16;;;;;;;11.68;4.18;;;;;;;5.33;100.00;100991.44;5072129;28;20072;-70
2022/01/07 09:37:42;;;;;;;11.70;4.18;;;;;;;5.24;100.00;100988.13;5072308;28;20024;-70
2022/01/07 09:40:08;;;;;;;18.05;4.90;;;;;;;5.14;100.00;100986.56;5071701;28;20060;-76
2022/01/07 09:42:33;;;;;;;13.93;4.35;;;;;;;5.09;100.00;100991.06;5072281;28;20064;-75
2022/01/07 09:44:59;;;;;;;11.32;4.00;;;;;;;5.56;100.00;100976.06;5072257;28;20028;-77
2022/01/07 09:47:27;;;;;;;11.32;4.20;;;;;;;6.18;96.18;100972.03;5072258;28;20082;-69
2022/01/07 09:49:52;;;;;;;10.68;3.55;;;;;;;6.09;94.59;100977.53;5072176;28;20468;-70
2022/01/07 09:52:18;;;;;;;16.08;3.63;;;;;;;6.01;94.57;100996.13;5071552;28;20028;-69
2022/01/07 09:54:43;;;;;;;13.27;3.70;;;;;;;5.87;94.75;100987.63;5069749;28;20061;-73
2022/01/07 09:57:09;;;;;;;13.98;4.15;;;;;;;5.64;95.92;100993.41;5068844;28;20426;-73
2022/01/07 09:59:36;;;;;;;14.98;4.60;;;;;;;5.40;97.11;100990.41;5071755;28;20035;-72
2022/01/07 10:02:04;;;;;;;12.50;4.43;;;;;;;5.24;98.62;100982.88;5071836;28;20104;-74
2022/01/07 10:04:33;;;;;;;12.50;4.55;;;;;;;5.13;99.39;100989.19;5072335;28;20040;-77
2022/01/07 10:07:16;;;;;;;12.40;4.60;;;;;;;5.07;99.33;100985.81;5072033;28;20108;-76
2022/01/07 10:10:18;;;;;;;13.70;4.35;;;;;;;5.07;99.43;100996.31;5071873;28;20033;-78
2022/01/07 10:13:06;;;;;;;11.55;4.40;;;;;;;5.08;99.23;100998.03;5071546;28;20040;-70
2022/01/07 10:15:34;;;;;;;12.05;4.38;;;;;;;5.14;97.68;101001.44;5074048;28;20036;-73
2022/01/07 10:18:07;;;;;;;15.68;4.60;;;;;;;5.30;98.55;101002.00;5077118;28;20033;-76
2022/01/07 10:20:46;;;;;;;11.15;4.00;;;;;;;5.52;96.84;101007.69;5075833;28;20082;-77
2022/01/07 10:23:14;;;;;;;14.95;4.93;;;;;;;5.88;96.97;100992.88;5073667;28;20041;-70
2022/01/07 10:25:45;;;;;;;13.32;4.63;;;;;;;6.32;95.52;100995.38;5065493;28;20021;-72
2022/01/07 10:28:16;;;;;;;14.77;5.75;;;;;;;6.44;94.40;100985.44;5070644;28;20037;-74
2022/01/07 10:30:51;;;;;;;11.68;4.43;;;;;;;6.29;94.71;100977.06;5071907;28;20040;-73
2022/01/07 10:33:36;;;;;;;14.10;5.88;;;;;;;6.08;95.21;100981.06;5070961;28;20028;-68
2022/01/07 10:36:08;;;;;;;19.45;6.32;;;;;;;6.02;96.15;100992.59;5071794;28;20065;-76
2022/01/07 10:38:35;;;;;;;15.48;5.55;;;;;;;6.10;95.24;100994.16;5075921;28;20036;-76
2022/01/07 10:41:02;;;;;;;25.55;6.65;;;;;;;6.23;95.45;100983.31;5073294;28;20044;-77
2022/01/07 10:43:32;;;;;;;16.13;4.85;;;;;;;6.64;94.91;100985.81;5073443;28;20100;-74
2022/01/07 10:46:01;;;;;;;16.70;4.90;;;;;;;7.06;91.29;100974.16;5075175;28;20021;-76
2022/01/07 10:48:49;;;;;;;14.80;3.90;;;;;;;7.40;90.01;100981.06;5074810;28;20533;-72
2022/01/07 10:51:18;;;;;;;13.25;3.50;;;;;;;7.51;87.42;100984.25;5074375;28;20111;-75
2022/01/07 10:53:56;;;;;;;12.15;4.32;;;;;;;7.13;88.78;100982.75;5073512;28;20035;-76
2022/01/07 10:56:44;;;;;;;9.93;3.78;;;;;;;6.87;90.75;100974.66;5075394;28;20025;-76
2022/01/07 10:59:11;;;;;;;10.77;3.65;;;;;;;6.69;91.13;100975.16;5074453;28;20038;-74
2022/01/07 11:01:47;;;;;;;9.88;3.28;;;;;;;6.61;91.81;100971.84;5064600;28;20060;-71
2022/01/07 11:04:31;;;;;;;14.57;3.17;;;;;;;6.50;92.04;100974.78;5073738;28;20063;-74
2022/01/07 11:06:58;;;;;;;11.88;2.78;;;;;;;6.23;90.49;100977.19;5074605;28;20029;-72
2022/01/07 11:09:24;;;;;;;14.52;3.50;;;;;;;6.12;91.00;100977.44;5074603;28;20427;-72
2022/01/07 11:11:55;;;;;;;10.95;3.00;;;;;;;6.00;89.16;100978.59;5075447;28;20020;-75
2022/01/07 11:14:28;;;;;;;6.72;2.03;;;;;;;5.94;85.49;100975.25;5062647;28;20036;-69
2022/01/07 11:16:57;;;;;;;9.88;2.20;;;;;;;5.88;84.25;100979.72;5076928;28;20028;-74
2022/01/07 11:19:27;;;;;;;11.85;2.45;;;;;;;5.91;81.58;100986.69;5084974;28;20012;-70
2022/01/07 11:21:54;;;;;;;9.65;2.10;;;;;;;5.93;81.35;100987.50;5074880;28;20032;-74
2022/01/07 11:24:39;;;;;;;18.58;2.70;;;;;;;5.99;80.70;100984.75;5067764;28;20032;-78